Regional Weather

 

KCRX - Corinth, Mississippi, USA
Distance from station: SW 29mi, 47km
Updated: Fri, 23-Feb-2024 3:35am CST
Overcast
Overcast
 Wind from NNW
Wind: NNW 7 mph , 11 km/h
Temperature: 54°F , 12°C
Dew Point: 52°F , 11°C
Humidity: 94%
Barometer: 29.74 inHg , 1007.1 hPa
Clouds: Overcast
Visibility: 10 miles , 16 km
Cloud details: Overcast 1400 ft
2024/02/23 09:35 KCRX 230935Z AUTO 33006KT 10SM OVC014 12/11 A2974 RMK AO2
KMKL - Jackson, Tennessee, USA
Distance from station: NW 46mi, 73km
Updated: Fri, 23-Feb-2024 2:53am CST
Clear
Clear
 Wind from NW
Wind: NW 7 mph , 11 km/h
Temperature: 50°F , 10°C
Wind Chill: 47°F , 8°C
Dew Point: 48°F , 9°C
Humidity: 94%
Barometer: 29.76 inHg , 1007.8 hPa
Clouds: Clear
Visibility: 10 miles , 16 km
2024/02/23 08:53 KMKL 230853Z AUTO 32006KT 10SM CLR 10/09 A2976 RMK AO2 SLP074 T01000089 52007
 
KMSL - Muscle Shoal, Alabama, USA
Distance from station: SE 49mi, 79km
Updated: Fri, 23-Feb-2024 3:15am CST
Mostly cloudy
Mostly cloudy
 Wind from NW
Wind: NW 7 mph , 11 km/h
Temperature: 54°F , 12°C
Dew Point: 52°F , 11°C
Humidity: 94%
Barometer: 29.70 inHg , 1005.8 hPa
Clouds: Mostly cloudy
Visibility: 10 miles , 16 km
Cloud details: Mostly cloudy 600 ft
Mostly cloudy 2300 ft
2024/02/23 09:15 KMSL 230915Z AUTO 32006KT 10SM BKN006 BKN023 12/11 A2970 RMK AO2 CIG 004V008 T01220106
KTUP - Tupelo, Mississippi, USA
Distance from station: SSW 72mi, 117km
Updated: Fri, 23-Feb-2024 3:22am CST
Mostly cloudy
Mostly cloudy
 Wind from WNW
Wind: WNW 3 mph , 6 km/h
Temperature: 54°F , 12°C
Dew Point: 52°F , 11°C
Humidity: 94%
Barometer: 29.73 inHg , 1006.8 hPa
Clouds: Mostly cloudy
Visibility: 10 miles , 16 km
Cloud details: Mostly cloudy 2000 ft
2024/02/23 09:22 KTUP 230922Z AUTO 30003KT 10SM BKN020 12/11 A2973 RMK AO2 T01170106 $
 
KHSV - Huntsville, Alabama, USA
Distance from station: ESE 92mi, 148km
Updated: Fri, 23-Feb-2024 2:53am CST
Clear
Clear
 Wind from WSW
Wind: WSW 3 mph , 6 km/h
Temperature: 52°F , 11°C
Dew Point: 52°F , 11°C
Humidity: 100%
Barometer: 29.64 inHg , 1003.7 hPa
Clouds: Clear
Visibility: 10 miles , 16 km
2024/02/23 08:53 KHSV 230853Z AUTO 25003KT 10SM CLR 11/11 A2964 RMK AO2 RAE29 SLP034 P0001 60033 T01060106 58008 $
KBNA - Nashville, TN, USA
Distance from station: NE 97mi, 157km
Updated: Fri, 23-Feb-2024 3:34am CST
Overcast
Overcast
 Wind from NNW
Wind: NNW 8 mph , 13 km/h
Temperature: 54°F , 12°C
Dew Point: 48°F , 9°C
Humidity: 82%
Barometer: 29.68 inHg , 1005.1 hPa
Clouds: Overcast
Visibility: 10 miles , 16 km
Cloud details: Few Clouds 1500 ft
Partly cloudy 2000 ft
Overcast 8500 ft
2024/02/23 09:34 KBNA 230934Z 34007KT 10SM FEW015 SCT020 OVC085 12/09 A2968 RMK AO2 T01170089
 
KMEM - Memphis, Tennessee, USA
Distance from station: W 99mi, 159km
Updated: Fri, 23-Feb-2024 2:54am CST
Clear
Clear
 Wind from NNW
Wind: NNW 6 mph , 9 km/h
Temperature: 52°F , 11°C
Dew Point: 48°F , 9°C
Humidity: 88%
Barometer: 29.77 inHg , 1008.1 hPa
Clouds: Clear
Visibility: 10 miles , 16 km
2024/02/23 08:54 KMEM 230854Z 33005KT 10SM CLR 11/09 A2977 RMK AO2 SLP081 T01060094 51012 $
KCKV - Clarksville, TN, USA
Distance from station: NNE 99mi, 159km
Updated: Fri, 23-Feb-2024 2:52am CST
Clear
Clear
 Wind from NNW
Wind: NNW 8 mph , 13 km/h
Temperature: 46°F , 8°C
Wind Chill: 42°F , 6°C
Dew Point: 45°F , 7°C
Humidity: 93%
Barometer: 29.71 inHg , 1006.1 hPa
Clouds: Clear
Visibility: 10 miles , 16 km
2024/02/23 08:52 KCKV 230852Z AUTO 33007KT 10SM CLR 08/07 A2971 RMK AO2 SLP060 T00830067 53007
 
KCHA - Chattanooga, TN, USA
Distance from station: E 165mi, 265km
Updated: Fri, 23-Feb-2024 2:53am CST
Light rain, Overcast
Light rain, Overcast
 Wind from calm
Wind: Calm
Temperature: 54°F , 12°C
Dew Point: 52°F , 11°C
Humidity: 94%
Barometer: 29.63 inHg , 1003.4 hPa
Summary: Light rain
Clouds: Overcast
Visibility: 10 miles , 16 km
Cloud details: Overcast 7000 ft
2024/02/23 08:53 KCHA 230853Z AUTO 00000KT 10SM -RA OVC070 12/11 A2963 RMK AO2 SLP031 P0006 60019 T01220111 56002
KTYS - Knoxville, TN, USA
Distance from station: E 234mi, 377km
Updated: Fri, 23-Feb-2024 2:53am CST
Light rain, Overcast
Light rain, Overcast
 Wind from SSW
Wind: SSW 9 mph , 15 km/h
Temperature: 52°F , 11°C
Dew Point: 50°F , 10°C
Humidity: 94%
Barometer: 29.60 inHg , 1002.4 hPa
Summary: Light rain
Clouds: Overcast
Visibility: 9 miles , 14 km
Cloud details: Overcast 6000 ft
2024/02/23 08:53 KTYS 230853Z 20008KT 9SM -RA OVC060 11/10 A2960 RMK AO2 SLP019 P0005 60016 T01110100 56014

Refresh Page for latest data.